sensor_id;sensor_type;location;lat;lon;timestamp;temperature;humidity
76787;DHT22;65739;51.482;5.702;2023-05-20T00:00:30;12.40;99.90
76787;DHT22;65739;51.482;5.702;2023-05-20T00:02:55;12.30;99.90
76787;DHT22;65739;51.482;5.702;2023-05-20T00:05:22;12.30;99.90
76787;DHT22;65739;51.482;5.702;2023-05-20T00:07:47;12.30;99.90
76787;DHT22;65739;51.482;5.702;2023-05-20T00:10:13;12.20;99.90
76787;DHT22;65739;51.482;5.702;2023-05-20T00:12:39;12.20;99.90
76787;DHT22;65739;51.482;5.702;2023-05-20T00:15:05;12.20;99.90
76787;DHT22;65739;51.482;5.702;2023-05-20T00:17:31;12.20;99.90
76787;DHT22;65739;51.482;5.702;2023-05-20T00:19:56;12.10;99.90
76787;DHT22;65739;51.482;5.702;2023-05-20T00:22:22;12.00;99.90
76787;DHT22;65739;51.482;5.702;2023-05-20T00:24:47;12.00;99.90
76787;DHT22;65739;51.482;5.702;2023-05-20T00:27:13;11.90;99.90
76787;DHT22;65739;51.482;5.702;2023-05-20T00:29:38;11.80;99.90
76787;DHT22;65739;51.482;5.702;2023-05-20T00:32:04;11.70;99.90
76787;DHT22;65739;51.482;5.702;2023-05-20T00:34:30;11.70;99.90
76787;DHT22;65739;51.482;5.702;2023-05-20T00:36:55;11.70;99.90
76787;DHT22;65739;51.482;5.702;2023-05-20T00:39:21;11.70;99.90
76787;DHT22;65739;51.482;5.702;2023-05-20T00:41:46;11.60;99.90
76787;DHT22;65739;51.482;5.702;2023-05-20T00:44:12;11.60;99.90
76787;DHT22;65739;51.482;5.702;2023-05-20T00:46:38;11.60;99.90
76787;DHT22;65739;51.482;5.702;2023-05-20T00:49:03;11.60;99.90
76787;DHT22;65739;51.482;5.702;2023-05-20T00:51:29;11.60;99.90
76787;DHT22;65739;51.482;5.702;2023-05-20T00:53:55;11.60;99.90
76787;DHT22;65739;51.482;5.702;2023-05-20T00:56:22;11.50;99.90
76787;DHT22;65739;51.482;5.702;2023-05-20T00:58:48;11.50;99.90
76787;DHT22;65739;51.482;5.702;2023-05-20T01:01:14;11.50;99.90
76787;DHT22;65739;51.482;5.702;2023-05-20T01:03:39;11.40;99.90
76787;DHT22;65739;51.482;5.702;2023-05-20T01:06:05;11.40;99.90
76787;DHT22;65739;51.482;5.702;2023-05-20T01:08:31;11.40;99.90
76787;DHT22;65739;51.482;5.702;2023-05-20T01:11:07;11.30;99.90
76787;DHT22;65739;51.482;5.702;2023-05-20T01:13:41;11.30;99.90
76787;DHT22;65739;51.482;5.702;2023-05-20T01:16:07;11.30;99.90
76787;DHT22;65739;51.482;5.702;2023-05-20T01:18:35;11.30;99.90
76787;DHT22;65739;51.482;5.702;2023-05-20T01:21:01;11.30;99.90
76787;DHT22;65739;51.482;5.702;2023-05-20T01:23:41;11.20;99.90
76787;DHT22;65739;51.482;5.702;2023-05-20T01:26:07;11.30;99.90
76787;DHT22;65739;51.482;5.702;2023-05-20T01:28:34;11.10;99.90
76787;DHT22;65739;51.482;5.702;2023-05-20T01:31:01;11.10;99.90
76787;DHT22;65739;51.482;5.702;2023-05-20T01:33:29;11.10;99.90
76787;DHT22;65739;51.482;5.702;2023-05-20T01:35:56;11.10;99.90
76787;DHT22;65739;51.482;5.702;2023-05-20T01:38:22;11.00;99.90
76787;DHT22;65739;51.482;5.702;2023-05-20T01:40:49;11.00;99.90
76787;DHT22;65739;51.482;5.702;2023-05-20T01:43:16;10.90;99.90
76787;DHT22;65739;51.482;5.702;2023-05-20T01:45:42;10.90;99.90
76787;DHT22;65739;51.482;5.702;2023-05-20T01:48:11;10.90;99.90
76787;DHT22;65739;51.482;5.702;2023-05-20T01:50:38;10.90;99.90
76787;DHT22;65739;51.482;5.702;2023-05-20T01:53:04;10.90;99.90
76787;DHT22;65739;51.482;5.702;2023-05-20T01:55:30;10.90;99.90
76787;DHT22;65739;51.482;5.702;2023-05-20T01:57:55;10.90;99.90
76787;DHT22;65739;51.482;5.702;2023-05-20T02:00:21;10.90;99.90
76787;DHT22;65739;51.482;5.702;2023-05-20T02:02:47;10.80;99.90
76787;DHT22;65739;51.482;5.702;2023-05-20T02:05:12;10.80;99.90
76787;DHT22;65739;51.482;5.702;2023-05-20T02:07:38;10.80;99.90
76787;DHT22;65739;51.482;5.702;2023-05-20T02:10:04;10.80;99.90
76787;DHT22;65739;51.482;5.702;2023-05-20T02:12:29;10.70;99.90
76787;DHT22;65739;51.482;5.702;2023-05-20T02:14:55;10.60;99.90
76787;DHT22;65739;51.482;5.702;2023-05-20T02:17:20;10.50;99.90
76787;DHT22;65739;51.482;5.702;2023-05-20T02:19:46;10.50;99.90
76787;DHT22;65739;51.482;5.702;2023-05-20T02:22:12;10.50;99.90
76787;DHT22;65739;51.482;5.702;2023-05-20T02:24:38;10.40;99.90
76787;DHT22;65739;51.482;5.702;2023-05-20T02:27:04;10.40;99.90
76787;DHT22;65739;51.482;5.702;2023-05-20T02:29:30;10.40;99.90
76787;DHT22;65739;51.482;5.702;2023-05-20T02:31:56;10.40;99.90
76787;DHT22;65739;51.482;5.702;2023-05-20T02:34:22;10.30;99.90
76787;DHT22;65739;51.482;5.702;2023-05-20T02:36:50;10.30;99.90
76787;DHT22;65739;51.482;5.702;2023-05-20T02:39:16;10.30;99.90
76787;DHT22;65739;51.482;5.702;2023-05-20T02:41:41;10.30;99.90
76787;DHT22;65739;51.482;5.702;2023-05-20T02:44:07;10.30;99.90
76787;DHT22;65739;51.482;5.702;2023-05-20T02:46:33;10.30;99.90
76787;DHT22;65739;51.482;5.702;2023-05-20T02:48:58;10.30;99.90
76787;DHT22;65739;51.482;5.702;2023-05-20T02:51:24;10.30;99.90
76787;DHT22;65739;51.482;5.702;2023-05-20T02:53:50;10.40;99.90
76787;DHT22;65739;51.482;5.702;2023-05-20T02:56:15;10.40;99.90
76787;DHT22;65739;51.482;5.702;2023-05-20T02:58:45;10.50;99.90
76787;DHT22;65739;51.482;5.702;2023-05-20T03:01:11;10.50;99.90
76787;DHT22;65739;51.482;5.702;2023-05-20T03:03:37;10.60;99.90
76787;DHT22;65739;51.482;5.702;2023-05-20T03:06:05;10.60;99.90
76787;DHT22;65739;51.482;5.702;2023-05-20T03:08:31;10.50;99.90
76787;DHT22;65739;51.482;5.702;2023-05-20T03:10:58;10.50;99.90
76787;DHT22;65739;51.482;5.702;2023-05-20T03:13:23;10.40;99.90
76787;DHT22;65739;51.482;5.702;2023-05-20T03:15:49;10.40;99.90
76787;DHT22;65739;51.482;5.702;2023-05-20T03:18:15;10.30;99.90
76787;DHT22;65739;51.482;5.702;2023-05-20T03:20:41;10.30;99.90
76787;DHT22;65739;51.482;5.702;2023-05-20T03:23:08;10.30;99.90
76787;DHT22;65739;51.482;5.702;2023-05-20T03:25:35;10.20;99.90
76787;DHT22;65739;51.482;5.702;2023-05-20T03:28:00;10.20;99.90
76787;DHT22;65739;51.482;5.702;2023-05-20T03:30:26;10.20;99.90
76787;DHT22;65739;51.482;5.702;2023-05-20T03:32:53;10.10;99.90
76787;DHT22;65739;51.482;5.702;2023-05-20T03:35:18;10.10;99.90
76787;DHT22;65739;51.482;5.702;2023-05-20T03:37:44;10.00;99.90
76787;DHT22;65739;51.482;5.702;2023-05-20T03:40:10;10.00;99.90
76787;DHT22;65739;51.482;5.702;2023-05-20T03:42:39;9.90;99.90
76787;DHT22;65739;51.482;5.702;2023-05-20T03:45:05;9.90;99.90
76787;DHT22;65739;51.482;5.702;2023-05-20T03:47:33;9.90;99.90
76787;DHT22;65739;51.482;5.702;2023-05-20T03:50:02;10.00;99.90
76787;DHT22;65739;51.482;5.702;2023-05-20T03:52:28;10.10;99.90
76787;DHT22;65739;51.482;5.702;2023-05-20T03:54:53;10.10;99.90
76787;DHT22;65739;51.482;5.702;2023-05-20T03:57:19;10.10;99.90
76787;DHT22;65739;51.482;5.702;2023-05-20T03:59:45;10.00;99.90
76787;DHT22;65739;51.482;5.702;2023-05-20T04:02:10;10.10;99.90
76787;DHT22;65739;51.482;5.702;2023-05-20T04:04:36;10.00;99.90
76787;DHT22;65739;51.482;5.702;2023-05-20T04:07:02;10.00;99.90
76787;DHT22;65739;51.482;5.702;2023-05-20T04:09:32;10.00;99.90
76787;DHT22;65739;51.482;5.702;2023-05-20T04:11:58;10.00;99.90
76787;DHT22;65739;51.482;5.702;2023-05-20T04:14:23;10.10;99.90
76787;DHT22;65739;51.482;5.702;2023-05-20T04:16:49;10.10;99.90
76787;DHT22;65739;51.482;5.702;2023-05-20T04:19:15;10.10;99.90
76787;DHT22;65739;51.482;5.702;2023-05-20T04:21:44;10.10;99.90
76787;DHT22;65739;51.482;5.702;2023-05-20T04:24:09;10.20;99.90
76787;DHT22;65739;51.482;5.702;2023-05-20T04:26:35;10.20;99.90
76787;DHT22;65739;51.482;5.702;2023-05-20T04:29:01;10.20;99.90
76787;DHT22;65739;51.482;5.702;2023-05-20T04:31:28;10.30;99.90
76787;DHT22;65739;51.482;5.702;2023-05-20T04:33:54;10.40;99.90
76787;DHT22;65739;51.482;5.702;2023-05-20T04:36:20;10.40;99.90
76787;DHT22;65739;51.482;5.702;2023-05-20T04:38:46;10.50;99.90
76787;DHT22;65739;51.482;5.702;2023-05-20T04:41:12;10.60;99.90
76787;DHT22;65739;51.482;5.702;2023-05-20T04:43:40;10.60;99.90
76787;DHT22;65739;51.482;5.702;2023-05-20T04:46:07;10.70;99.90
76787;DHT22;65739;51.482;5.702;2023-05-20T04:48:33;10.80;99.90
76787;DHT22;65739;51.482;5.702;2023-05-20T04:50:58;10.80;99.90
76787;DHT22;65739;51.482;5.702;2023-05-20T04:53:24;10.90;99.90
76787;DHT22;65739;51.482;5.702;2023-05-20T04:55:53;11.00;99.90
76787;DHT22;65739;51.482;5.702;2023-05-20T04:58:21;11.10;99.90
76787;DHT22;65739;51.482;5.702;2023-05-20T05:00:49;11.10;99.90
76787;DHT22;65739;51.482;5.702;2023-05-20T05:03:14;11.20;99.90
76787;DHT22;65739;51.482;5.702;2023-05-20T05:05:40;11.30;99.90
76787;DHT22;65739;51.482;5.702;2023-05-20T05:08:07;11.40;99.90
76787;DHT22;65739;51.482;5.702;2023-05-20T05:10:33;11.50;99.90
76787;DHT22;65739;51.482;5.702;2023-05-20T05:13:00;11.50;99.90
76787;DHT22;65739;51.482;5.702;2023-05-20T05:15:26;11.60;99.90
76787;DHT22;65739;51.482;5.702;2023-05-20T05:17:51;11.70;99.90
76787;DHT22;65739;51.482;5.702;2023-05-20T05:20:17;11.80;99.90
76787;DHT22;65739;51.482;5.702;2023-05-20T05:22:43;11.90;99.90
76787;DHT22;65739;51.482;5.702;2023-05-20T05:25:09;12.00;99.90
76787;DHT22;65739;51.482;5.702;2023-05-20T05:27:35;12.10;99.90
76787;DHT22;65739;51.482;5.702;2023-05-20T05:30:02;12.20;99.90
76787;DHT22;65739;51.482;5.702;2023-05-20T05:32:28;12.30;99.90
76787;DHT22;65739;51.482;5.702;2023-05-20T05:34:54;12.50;99.90
76787;DHT22;65739;51.482;5.702;2023-05-20T05:37:20;12.60;99.90
76787;DHT22;65739;51.482;5.702;2023-05-20T05:39:45;12.70;99.90
76787;DHT22;65739;51.482;5.702;2023-05-20T05:42:11;12.80;99.90
76787;DHT22;65739;51.482;5.702;2023-05-20T05:44:36;12.90;99.90
76787;DHT22;65739;51.482;5.702;2023-05-20T05:47:02;13.20;99.90
76787;DHT22;65739;51.482;5.702;2023-05-20T05:49:27;13.10;99.90
76787;DHT22;65739;51.482;5.702;2023-05-20T05:51:53;13.30;99.90
76787;DHT22;65739;51.482;5.702;2023-05-20T05:54:19;13.30;99.90
76787;DHT22;65739;51.482;5.702;2023-05-20T05:56:47;13.40;99.90
76787;DHT22;65739;51.482;5.702;2023-05-20T05:59:14;13.40;99.90
76787;DHT22;65739;51.482;5.702;2023-05-20T06:01:40;13.60;99.90
76787;DHT22;65739;51.482;5.702;2023-05-20T06:04:05;13.70;99.90
76787;DHT22;65739;51.482;5.702;2023-05-20T06:06:31;13.80;99.90
76787;DHT22;65739;51.482;5.702;2023-05-20T06:08:57;13.90;99.90
76787;DHT22;65739;51.482;5.702;2023-05-20T06:11:23;13.90;99.90
76787;DHT22;65739;51.482;5.702;2023-05-20T06:13:49;14.00;99.90
76787;DHT22;65739;51.482;5.702;2023-05-20T06:16:15;14.10;99.90
76787;DHT22;65739;51.482;5.702;2023-05-20T06:18:41;14.10;99.90
76787;DHT22;65739;51.482;5.702;2023-05-20T06:21:06;14.10;99.90
76787;DHT22;65739;51.482;5.702;2023-05-20T06:23:32;14.10;99.90
76787;DHT22;65739;51.482;5.702;2023-05-20T06:25:58;14.20;99.90
76787;DHT22;65739;51.482;5.702;2023-05-20T06:28:24;14.30;99.90
76787;DHT22;65739;51.482;5.702;2023-05-20T06:30:50;14.30;99.90
76787;DHT22;65739;51.482;5.702;2023-05-20T06:33:17;14.30;99.90
76787;DHT22;65739;51.482;5.702;2023-05-20T06:35:43;14.50;99.90
76787;DHT22;65739;51.482;5.702;2023-05-20T06:38:09;14.50;99.90
76787;DHT22;65739;51.482;5.702;2023-05-20T06:40:34;14.60;99.90
76787;DHT22;65739;51.482;5.702;2023-05-20T06:43:00;14.60;99.90
76787;DHT22;65739;51.482;5.702;2023-05-20T06:45:25;14.70;99.90
76787;DHT22;65739;51.482;5.702;2023-05-20T06:47:51;14.80;99.90
76787;DHT22;65739;51.482;5.702;2023-05-20T06:50:18;14.80;99.90
76787;DHT22;65739;51.482;5.702;2023-05-20T06:52:44;14.90;99.90
76787;DHT22;65739;51.482;5.702;2023-05-20T06:55:09;15.00;99.90
76787;DHT22;65739;51.482;5.702;2023-05-20T06:57:35;15.00;99.90
76787;DHT22;65739;51.482;5.702;2023-05-20T07:00:02;15.10;99.90
76787;DHT22;65739;51.482;5.702;2023-05-20T07:02:28;15.20;99.90
76787;DHT22;65739;51.482;5.702;2023-05-20T07:04:53;15.40;99.90
76787;DHT22;65739;51.482;5.702;2023-05-20T07:07:19;15.40;99.90
76787;DHT22;65739;51.482;5.702;2023-05-20T07:09:44;15.40;99.90
76787;DHT22;65739;51.482;5.702;2023-05-20T07:12:10;15.50;99.90
76787;DHT22;65739;51.482;5.702;2023-05-20T07:14:35;15.60;99.90
76787;DHT22;65739;51.482;5.702;2023-05-20T07:17:01;15.70;99.90
76787;DHT22;65739;51.482;5.702;2023-05-20T07:19:27;15.80;99.90
76787;DHT22;65739;51.482;5.702;2023-05-20T07:21:52;15.80;99.90
76787;DHT22;65739;51.482;5.702;2023-05-20T07:24:18;15.80;99.90
76787;DHT22;65739;51.482;5.702;2023-05-20T07:26:43;15.90;99.90
76787;DHT22;65739;51.482;5.702;2023-05-20T07:29:09;15.90;99.90
76787;DHT22;65739;51.482;5.702;2023-05-20T07:31:35;15.90;99.90
76787;DHT22;65739;51.482;5.702;2023-05-20T07:34:00;16.00;99.90
76787;DHT22;65739;51.482;5.702;2023-05-20T07:36:27;16.10;99.90
76787;DHT22;65739;51.482;5.702;2023-05-20T07:38:52;16.10;99.90
76787;DHT22;65739;51.482;5.702;2023-05-20T07:41:18;16.20;99.90
76787;DHT22;65739;51.482;5.702;2023-05-20T07:43:45;16.20;99.90
76787;DHT22;65739;51.482;5.702;2023-05-20T07:46:10;16.40;99.90
76787;DHT22;65739;51.482;5.702;2023-05-20T07:48:36;16.60;99.90
76787;DHT22;65739;51.482;5.702;2023-05-20T07:51:01;16.60;99.90
76787;DHT22;65739;51.482;5.702;2023-05-20T07:53:27;16.70;99.90
76787;DHT22;65739;51.482;5.702;2023-05-20T07:55:53;16.70;99.90
76787;DHT22;65739;51.482;5.702;2023-05-20T07:58:18;16.80;99.90
76787;DHT22;65739;51.482;5.702;2023-05-20T08:00:44;16.90;99.90
76787;DHT22;65739;51.482;5.702;2023-05-20T08:03:09;17.00;99.90
76787;DHT22;65739;51.482;5.702;2023-05-20T08:05:36;17.20;99.90
76787;DHT22;65739;51.482;5.702;2023-05-20T08:08:03;17.40;99.90
76787;DHT22;65739;51.482;5.702;2023-05-20T08:10:28;17.50;99.90
76787;DHT22;65739;51.482;5.702;2023-05-20T08:12:54;17.60;99.90
76787;DHT22;65739;51.482;5.702;2023-05-20T08:15:20;17.70;99.90
76787;DHT22;65739;51.482;5.702;2023-05-20T08:17:45;17.70;99.90
76787;DHT22;65739;51.482;5.702;2023-05-20T08:20:11;17.80;99.90
76787;DHT22;65739;51.482;5.702;2023-05-20T08:22:37;17.80;99.90
76787;DHT22;65739;51.482;5.702;2023-05-20T08:25:05;17.90;99.90
76787;DHT22;65739;51.482;5.702;2023-05-20T08:27:32;18.10;99.90
76787;DHT22;65739;51.482;5.702;2023-05-20T08:29:57;18.30;99.90
76787;DHT22;65739;51.482;5.702;2023-05-20T08:32:23;18.30;99.90
76787;DHT22;65739;51.482;5.702;2023-05-20T08:34:48;18.50;99.90
76787;DHT22;65739;51.482;5.702;2023-05-20T08:37:14;18.60;99.90
76787;DHT22;65739;51.482;5.702;2023-05-20T08:39:41;18.60;99.90
76787;DHT22;65739;51.482;5.702;2023-05-20T08:42:07;18.60;99.90
76787;DHT22;65739;51.482;5.702;2023-05-20T08:44:35;18.80;99.90
76787;DHT22;65739;51.482;5.702;2023-05-20T08:47:02;18.90;99.90
76787;DHT22;65739;51.482;5.702;2023-05-20T08:49:30;19.10;99.90
76787;DHT22;65739;51.482;5.702;2023-05-20T08:51:56;19.20;99.90
76787;DHT22;65739;51.482;5.702;2023-05-20T08:54:24;19.40;99.90
76787;DHT22;65739;51.482;5.702;2023-05-20T08:56:50;19.60;99.90
76787;DHT22;65739;51.482;5.702;2023-05-20T08:59:18;19.40;99.90
76787;DHT22;65739;51.482;5.702;2023-05-20T09:01:44;19.40;99.90
76787;DHT22;65739;51.482;5.702;2023-05-20T09:04:09;19.50;99.90
76787;DHT22;65739;51.482;5.702;2023-05-20T09:06:42;20.00;99.90
76787;DHT22;65739;51.482;5.702;2023-05-20T09:09:10;20.10;99.90
76787;DHT22;65739;51.482;5.702;2023-05-20T09:11:36;20.00;99.90
76787;DHT22;65739;51.482;5.702;2023-05-20T09:14:01;20.10;99.90
76787;DHT22;65739;51.482;5.702;2023-05-20T09:16:27;20.00;99.90
76787;DHT22;65739;51.482;5.702;2023-05-20T09:18:56;20.00;99.90
76787;DHT22;65739;51.482;5.702;2023-05-20T09:21:26;20.40;99.90
76787;DHT22;65739;51.482;5.702;2023-05-20T09:23:51;20.40;99.90
76787;DHT22;65739;51.482;5.702;2023-05-20T09:26:18;20.40;99.90
76787;DHT22;65739;51.482;5.702;2023-05-20T09:28:44;20.60;99.90
76787;DHT22;65739;51.482;5.702;2023-05-20T09:31:12;20.50;99.90
76787;DHT22;65739;51.482;5.702;2023-05-20T09:33:39;20.30;99.90
76787;DHT22;65739;51.482;5.702;2023-05-20T09:36:09;20.60;99.90
76787;DHT22;65739;51.482;5.702;2023-05-20T09:38:39;20.60;99.90
76787;DHT22;65739;51.482;5.702;2023-05-20T09:41:11;20.70;99.90
76787;DHT22;65739;51.482;5.702;2023-05-20T09:43:38;20.70;99.90
76787;DHT22;65739;51.482;5.702;2023-05-20T09:46:04;20.70;99.90
76787;DHT22;65739;51.482;5.702;2023-05-20T09:48:30;20.60;99.90
76787;DHT22;65739;51.482;5.702;2023-05-20T09:50:56;21.10;99.90
76787;DHT22;65739;51.482;5.702;2023-05-20T09:53:26;21.20;99.90
76787;DHT22;65739;51.482;5.702;2023-05-20T09:55:53;21.50;99.90
76787;DHT22;65739;51.482;5.702;2023-05-20T09:58:19;21.40;99.90
76787;DHT22;65739;51.482;5.702;2023-05-20T10:00:45;21.40;99.90
76787;DHT22;65739;51.482;5.702;2023-05-20T10:03:11;21.70;99.90
76787;DHT22;65739;51.482;5.702;2023-05-20T10:05:41;21.70;99.90
76787;DHT22;65739;51.482;5.702;2023-05-20T10:08:12;21.40;99.90
76787;DHT22;65739;51.482;5.702;2023-05-20T10:11:12;21.10;99.90
76787;DHT22;65739;51.482;5.702;2023-05-20T10:17:12;21.60;99.90
76787;DHT22;65739;51.482;5.702;2023-05-20T10:19:41;21.60;99.90
76787;DHT22;65739;51.482;5.702;2023-05-20T10:22:08;21.90;99.90
76787;DHT22;65739;51.482;5.702;2023-05-20T10:24:36;21.80;99.90
76787;DHT22;65739;51.482;5.702;2023-05-20T10:27:04;22.10;99.90
76787;DHT22;65739;51.482;5.702;2023-05-20T10:29:48;22.30;99.90
76787;DHT22;65739;51.482;5.702;2023-05-20T10:32:26;21.60;99.90
76787;DHT22;65739;51.482;5.702;2023-05-20T10:34:56;21.00;99.90
76787;DHT22;65739;51.482;5.702;2023-05-20T10:37:33;21.40;99.90
76787;DHT22;65739;51.482;5.702;2023-05-20T10:40:14;22.00;99.90
76787;DHT22;65739;51.482;5.702;2023-05-20T10:42:41;22.00;99.90
76787;DHT22;65739;51.482;5.702;2023-05-20T10:45:07;21.80;99.90
76787;DHT22;65739;51.482;5.702;2023-05-20T10:47:34;21.70;99.90
76787;DHT22;65739;51.482;5.702;2023-05-20T10:50:00;21.90;99.90
76787;DHT22;65739;51.482;5.702;2023-05-20T10:52:33;22.40;99.90
76787;DHT22;65739;51.482;5.702;2023-05-20T10:55:00;22.50;99.90
76787;DHT22;65739;51.482;5.702;2023-05-20T10:57:27;22.80;99.90
76787;DHT22;65739;51.482;5.702;2023-05-20T10:59:54;22.60;99.90
76787;DHT22;65739;51.482;5.702;2023-05-20T11:02:20;22.10;99.90
76787;DHT22;65739;51.482;5.702;2023-05-20T11:04:52;21.40;99.90
76787;DHT22;65739;51.482;5.702;2023-05-20T11:07:25;21.50;99.90
76787;DHT22;65739;51.482;5.702;2023-05-20T11:09:51;21.70;99.90
76787;DHT22;65739;51.482;5.702;2023-05-20T11:12:17;22.10;99.90
76787;DHT22;65739;51.482;5.702;2023-05-20T11:14:42;22.40;99.90
76787;DHT22;65739;51.482;5.702;2023-05-20T11:17:08;22.80;99.90
76787;DHT22;65739;51.482;5.702;2023-05-20T11:19:36;22.40;99.90
76787;DHT22;65739;51.482;5.702;2023-05-20T11:22:01;22.20;99.90
76787;DHT22;65739;51.482;5.702;2023-05-20T11:24:27;22.20;99.90
76787;DHT22;65739;51.482;5.702;2023-05-20T11:26:56;22.90;99.90
76787;DHT22;65739;51.482;5.702;2023-05-20T11:29:22;22.80;99.90
76787;DHT22;65739;51.482;5.702;2023-05-20T11:31:50;22.40;99.90
76787;DHT22;65739;51.482;5.702;2023-05-20T11:34:19;22.90;99.90
76787;DHT22;65739;51.482;5.702;2023-05-20T11:36:45;23.20;99.90
76787;DHT22;65739;51.482;5.702;2023-05-20T11:39:11;23.30;99.90
76787;DHT22;65739;51.482;5.702;2023-05-20T11:41:38;22.90;99.90
76787;DHT22;65739;51.482;5.702;2023-05-20T11:44:04;22.70;99.90
76787;DHT22;65739;51.482;5.702;2023-05-20T11:46:42;22.60;99.90
76787;DHT22;65739;51.482;5.702;2023-05-20T11:49:08;22.80;99.90
76787;DHT22;65739;51.482;5.702;2023-05-20T11:51:36;23.20;99.90
76787;DHT22;65739;51.482;5.702;2023-05-20T11:54:03;23.30;99.90
76787;DHT22;65739;51.482;5.702;2023-05-20T11:56:30;23.40;99.90
76787;DHT22;65739;51.482;5.702;2023-05-20T11:58:59;23.90;99.90
76787;DHT22;65739;51.482;5.702;2023-05-20T12:01:26;24.10;99.90
76787;DHT22;65739;51.482;5.702;2023-05-20T12:03:52;23.60;99.90
76787;DHT22;65739;51.482;5.702;2023-05-20T12:06:18;23.50;99.90
76787;DHT22;65739;51.482;5.702;2023-05-20T12:08:44;23.50;99.90
76787;DHT22;65739;51.482;5.702;2023-05-20T12:11:09;23.00;99.90
76787;DHT22;65739;51.482;5.702;2023-05-20T12:13:35;23.20;99.90
76787;DHT22;65739;51.482;5.702;2023-05-20T12:16:00;23.60;99.90
76787;DHT22;65739;51.482;5.702;2023-05-20T12:18:26;24.00;99.90
76787;DHT22;65739;51.482;5.702;2023-05-20T12:20:51;24.00;99.90
76787;DHT22;65739;51.482;5.702;2023-05-20T12:23:17;23.90;99.90
76787;DHT22;65739;51.482;5.702;2023-05-20T12:25:43;23.60;99.90
76787;DHT22;65739;51.482;5.702;2023-05-20T12:28:11;23.90;99.90
76787;DHT22;65739;51.482;5.702;2023-05-20T12:30:37;24.10;99.90
76787;DHT22;65739;51.482;5.702;2023-05-20T12:33:02;24.00;99.90
76787;DHT22;65739;51.482;5.702;2023-05-20T12:35:41;24.00;99.90
76787;DHT22;65739;51.482;5.702;2023-05-20T12:38:08;23.50;99.90
76787;DHT22;65739;51.482;5.702;2023-05-20T12:40:34;23.30;99.90
76787;DHT22;65739;51.482;5.702;2023-05-20T12:43:01;23.40;99.90
76787;DHT22;65739;51.482;5.702;2023-05-20T12:45:27;23.60;99.90
76787;DHT22;65739;51.482;5.702;2023-05-20T12:47:53;23.50;99.90
76787;DHT22;65739;51.482;5.702;2023-05-20T12:50:19;23.30;99.90
76787;DHT22;65739;51.482;5.702;2023-05-20T12:52:45;23.30;99.90
76787;DHT22;65739;51.482;5.702;2023-05-20T12:55:10;23.70;99.90
76787;DHT22;65739;51.482;5.702;2023-05-20T12:57:45;23.80;99.90
76787;DHT22;65739;51.482;5.702;2023-05-20T13:00:11;23.70;99.90
76787;DHT22;65739;51.482;5.702;2023-05-20T13:02:37;23.30;99.90
76787;DHT22;65739;51.482;5.702;2023-05-20T13:05:03;23.10;99.90
76787;DHT22;65739;51.482;5.702;2023-05-20T13:07:29;23.00;99.90
76787;DHT22;65739;51.482;5.702;2023-05-20T13:09:56;23.30;99.90
76787;DHT22;65739;51.482;5.702;2023-05-20T13:12:21;22.90;99.90
76787;DHT22;65739;51.482;5.702;2023-05-20T13:14:47;22.70;99.90
76787;DHT22;65739;51.482;5.702;2023-05-20T13:17:12;22.70;99.90
76787;DHT22;65739;51.482;5.702;2023-05-20T13:19:38;22.60;99.90
76787;DHT22;65739;51.482;5.702;2023-05-20T13:22:04;22.80;99.90
76787;DHT22;65739;51.482;5.702;2023-05-20T13:24:36;22.60;99.90
76787;DHT22;65739;51.482;5.702;2023-05-20T13:27:02;23.20;99.90
76787;DHT22;65739;51.482;5.702;2023-05-20T13:29:29;23.20;99.90
76787;DHT22;65739;51.482;5.702;2023-05-20T13:31:54;22.70;99.90
76787;DHT22;65739;51.482;5.702;2023-05-20T13:34:20;22.60;99.90
76787;DHT22;65739;51.482;5.702;2023-05-20T13:36:45;22.60;99.90
76787;DHT22;65739;51.482;5.702;2023-05-20T13:39:13;23.40;99.90
76787;DHT22;65739;51.482;5.702;2023-05-20T13:41:38;23.80;99.90
76787;DHT22;65739;51.482;5.702;2023-05-20T13:44:04;23.70;99.90
76787;DHT22;65739;51.482;5.702;2023-05-20T13:46:30;23.60;99.90
76787;DHT22;65739;51.482;5.702;2023-05-20T13:48:55;23.30;99.90
76787;DHT22;65739;51.482;5.702;2023-05-20T13:51:21;23.20;99.90
76787;DHT22;65739;51.482;5.702;2023-05-20T13:53:46;23.10;99.90
76787;DHT22;65739;51.482;5.702;2023-05-20T13:56:12;23.20;99.90
76787;DHT22;65739;51.482;5.702;2023-05-20T13:58:37;23.40;99.90
76787;DHT22;65739;51.482;5.702;2023-05-20T14:01:04;23.30;99.90
76787;DHT22;65739;51.482;5.702;2023-05-20T14:03:30;23.20;99.90
76787;DHT22;65739;51.482;5.702;2023-05-20T14:05:57;23.10;99.90
76787;DHT22;65739;51.482;5.702;2023-05-20T14:08:23;23.00;99.90
76787;DHT22;65739;51.482;5.702;2023-05-20T14:10:49;23.00;99.90
76787;DHT22;65739;51.482;5.702;2023-05-20T14:13:19;22.50;99.90
76787;DHT22;65739;51.482;5.702;2023-05-20T14:15:45;22.60;99.90
76787;DHT22;65739;51.482;5.702;2023-05-20T14:18:10;22.80;99.90
76787;DHT22;65739;51.482;5.702;2023-05-20T14:20:36;22.90;99.90
76787;DHT22;65739;51.482;5.702;2023-05-20T14:23:01;23.20;99.90
76787;DHT22;65739;51.482;5.702;2023-05-20T14:25:27;23.10;99.90
76787;DHT22;65739;51.482;5.702;2023-05-20T14:27:53;23.00;99.90
76787;DHT22;65739;51.482;5.702;2023-05-20T14:30:18;23.30;99.90
76787;DHT22;65739;51.482;5.702;2023-05-20T14:32:44;23.60;99.90
76787;DHT22;65739;51.482;5.702;2023-05-20T14:35:09;23.80;99.90
76787;DHT22;65739;51.482;5.702;2023-05-20T14:37:35;23.70;99.90
76787;DHT22;65739;51.482;5.702;2023-05-20T14:40:00;23.50;99.90
76787;DHT22;65739;51.482;5.702;2023-05-20T14:42:26;23.40;99.90
76787;DHT22;65739;51.482;5.702;2023-05-20T14:44:52;23.70;99.90
76787;DHT22;65739;51.482;5.702;2023-05-20T14:47:17;23.80;99.90
76787;DHT22;65739;51.482;5.702;2023-05-20T14:49:44;23.10;99.90
76787;DHT22;65739;51.482;5.702;2023-05-20T14:52:10;23.10;99.90
76787;DHT22;65739;51.482;5.702;2023-05-20T14:54:36;23.20;99.90
76787;DHT22;65739;51.482;5.702;2023-05-20T14:57:01;23.40;99.90
76787;DHT22;65739;51.482;5.702;2023-05-20T14:59:28;23.90;99.90
76787;DHT22;65739;51.482;5.702;2023-05-20T15:01:53;23.70;99.90
76787;DHT22;65739;51.482;5.702;2023-05-20T15:04:19;23.60;99.90
76787;DHT22;65739;51.482;5.702;2023-05-20T15:06:45;23.70;99.90
76787;DHT22;65739;51.482;5.702;2023-05-20T15:09:10;24.10;99.90
76787;DHT22;65739;51.482;5.702;2023-05-20T15:11:36;24.60;99.90
76787;DHT22;65739;51.482;5.702;2023-05-20T15:14:01;25.10;99.90
76787;DHT22;65739;51.482;5.702;2023-05-20T15:16:27;25.10;99.90
76787;DHT22;65739;51.482;5.702;2023-05-20T15:18:52;24.60;99.90
76787;DHT22;65739;51.482;5.702;2023-05-20T15:21:18;24.80;99.90
76787;DHT22;65739;51.482;5.702;2023-05-20T15:23:43;25.50;99.90
76787;DHT22;65739;51.482;5.702;2023-05-20T15:26:09;25.30;99.90
76787;DHT22;65739;51.482;5.702;2023-05-20T15:28:38;25.40;99.90